Time;durP1;ratioP1;P1;durP2;ratioP2;P2;SDS_P1;SDS_P2;PMS_P1;PMS_P2;Temp;Humidity;BMP_temperature;BMP_pressure;BME280_temperature;BME280_humidity;BME280_pressure;Samples;Min_cycle;Max_cycle;Signal;HPM_P1;HPM_P2
2022/08/19 00:01:48;;;;;;;2.35;0.40;;;;;;;-144.47;100.00;61586.06;5011843;28;20029;-78
2022/08/19 00:04:16;;;;;;;1.23;0.40;;;;;;;-144.47;100.00;61586.06;5010991;28;20038;-78
2022/08/19 00:06:43;;;;;;;0.55;0.50;;;;;;;-144.47;100.00;61586.06;5011866;28;20029;-77
2022/08/19 00:09:11;;;;;;;0.68;0.68;;;;;;;-144.47;100.00;61586.06;5011380;28;20036;-78
2022/08/19 00:11:38;;;;;;;0.50;0.50;;;;;;;-144.47;100.00;61586.06;5011549;28;20065;-80
2022/08/19 00:14:06;;;;;;;1.83;0.57;;;;;;;-144.47;100.00;61586.06;5011279;28;20441;-78
2022/08/19 00:16:32;;;;;;;0.70;0.50;;;;;;;-144.47;100.00;61586.06;5009565;28;20161;-79
2022/08/19 00:18:57;;;;;;;1.05;0.68;;;;;;;-144.47;100.00;61586.06;5010991;28;20054;-78
2022/08/19 00:21:26;;;;;;;1.77;0.63;;;;;;;-144.47;100.00;61586.06;5011579;28;20077;-79
2022/08/19 00:23:53;;;;;;;0.88;0.50;;;;;;;-144.47;100.00;61586.06;5011652;28;20382;-78
2022/08/19 00:26:19;;;;;;;1.38;0.60;;;;;;;-144.47;100.00;61586.06;5010927;28;20038;-78
2022/08/19 00:28:46;;;;;;;0.55;0.50;;;;;;;-144.47;100.00;61586.06;5011455;28;20175;-78
2022/08/19 00:31:12;;;;;;;1.17;0.77;;;;;;;-144.47;100.00;61586.06;5012120;28;20425;-78
2022/08/19 00:33:38;;;;;;;0.80;0.57;;;;;;;-144.47;100.00;61586.06;5015341;28;20022;-78
2022/08/19 00:36:07;;;;;;;0.50;0.50;;;;;;;-144.47;100.00;61586.06;5013705;28;20026;-79
2022/08/19 00:38:41;;;;;;;1.75;0.70;;;;;;;-144.47;100.00;61586.06;5015369;28;20034;-78
2022/08/19 00:41:08;;;;;;;2.75;0.50;;;;;;;-144.47;100.00;61586.06;5013023;28;20041;-78
2022/08/19 00:43:34;;;;;;;2.15;0.60;;;;;;;-144.47;100.00;61586.06;5014935;28;20116;-78
2022/08/19 00:46:02;;;;;;;2.60;0.68;;;;;;;-144.47;100.00;61586.06;5014759;28;20117;-79
2022/08/19 00:48:28;;;;;;;0.93;0.60;;;;;;;-144.47;100.00;61586.06;5014981;28;20402;-78
2022/08/19 00:50:55;;;;;;;0.60;0.60;;;;;;;-144.47;100.00;61586.06;5013990;28;20030;-78
2022/08/19 00:53:24;;;;;;;0.80;0.80;;;;;;;-144.47;100.00;61586.06;5015034;28;20034;-78
2022/08/19 00:55:53;;;;;;;1.10;0.70;;;;;;;-144.47;100.00;61586.06;5014854;28;20173;-78
2022/08/19 00:58:21;;;;;;;2.38;0.70;;;;;;;-144.47;100.00;61586.06;5014444;28;20042;-79
2022/08/19 01:00:48;;;;;;;0.70;0.70;;;;;;;-144.47;100.00;61586.06;5014806;28;20030;-78
2022/08/19 01:03:17;;;;;;;1.15;0.43;;;;;;;-144.47;100.00;61586.06;5014414;28;20060;-79
2022/08/19 01:05:45;;;;;;;3.42;0.50;;;;;;;-144.47;100.00;61586.06;5014465;28;20091;-79
2022/08/19 01:08:11;;;;;;;1.30;0.50;;;;;;;-144.47;100.00;61586.06;5014415;28;20041;-78
2022/08/19 01:10:41;;;;;;;3.63;0.52;;;;;;;-144.47;100.00;61586.06;5013933;28;20034;-79
2022/08/19 01:13:07;;;;;;;2.22;0.70;;;;;;;-144.47;100.00;61586.06;5014920;28;20366;-78
2022/08/19 01:16:01;;;;;;;1.58;0.73;;;;;;;-144.47;100.00;61586.06;5014642;28;20401;-79
2022/08/19 01:18:28;;;;;;;2.05;0.70;;;;;;;-144.47;100.00;61586.06;5012184;28;20061;-79
2022/08/19 01:20:57;;;;;;;0.68;0.50;;;;;;;-144.47;100.00;61586.06;5013876;28;20037;-79
2022/08/19 01:23:42;;;;;;;1.00;0.60;;;;;;;-144.47;100.00;61586.06;5014339;28;20030;-78
2022/08/19 01:26:10;;;;;;;1.33;0.70;;;;;;;-144.47;100.00;61586.06;5013211;28;20367;-80
2022/08/19 01:28:36;;;;;;;1.00;0.90;;;;;;;-144.47;100.00;61586.06;5014163;28;20121;-79
2022/08/19 01:31:03;;;;;;;2.50;0.70;;;;;;;-144.47;100.00;61586.06;5013547;28;20399;-79
2022/08/19 01:33:30;;;;;;;0.70;0.70;;;;;;;-144.47;100.00;61586.06;5029186;28;20044;-79
2022/08/19 01:36:30;;;;;;;1.05;0.55;;;;;;;-144.47;100.00;61586.06;5013798;28;20448;-78
2022/08/19 01:38:59;;;;;;;2.63;0.50;;;;;;;-144.47;100.00;61586.06;5004769;28;20587;-79
2022/08/19 01:41:25;;;;;;;0.88;0.70;;;;;;;-144.47;100.00;61586.06;5012737;28;20412;-79
2022/08/19 01:43:52;;;;;;;1.80;0.57;;;;;;;-144.47;100.00;61586.06;5013837;28;20489;-79
2022/08/19 01:46:19;;;;;;;0.50;0.50;;;;;;;-144.47;100.00;61586.06;5013740;28;20417;-78
2022/08/19 01:48:45;;;;;;;1.85;0.50;;;;;;;-144.47;100.00;61586.06;5014005;28;20454;-79
2022/08/19 01:51:12;;;;;;;1.02;0.50;;;;;;;-144.47;100.00;61586.06;5013737;28;20037;-79
2022/08/19 01:53:39;;;;;;;0.47;0.47;;;;;;;-144.47;100.00;61586.06;5014663;28;20389;-78
2022/08/19 01:56:05;;;;;;;2.78;0.57;;;;;;;-144.47;100.00;61586.06;5013962;28;20104;-79
2022/08/19 01:58:36;;;;;;;1.63;0.60;;;;;;;-144.47;100.00;61586.06;5013903;28;20120;-79
2022/08/19 02:01:04;;;;;;;1.23;0.68;;;;;;;-144.47;100.00;61586.06;5013128;28;20073;-79
2022/08/19 02:03:30;;;;;;;0.65;0.63;;;;;;;-144.47;100.00;61586.06;5013630;28;20493;-78
2022/08/19 02:06:02;;;;;;;1.02;0.45;;;;;;;-144.47;100.00;61586.06;5013106;28;20038;-79
2022/08/19 02:08:29;;;;;;;0.88;0.50;;;;;;;-144.47;100.00;61586.06;5013940;28;20441;-78
2022/08/19 02:10:55;;;;;;;1.90;0.60;;;;;;;-144.47;100.00;61586.06;5011672;28;20915;-80
2022/08/19 02:13:22;;;;;;;1.90;0.60;;;;;;;-144.47;100.00;61586.06;5013692;28;20390;-77
2022/08/19 02:15:47;;;;;;;0.47;0.47;;;;;;;-144.47;100.00;61586.06;5013172;28;20109;-78
2022/08/19 02:18:13;;;;;;;1.52;1.00;;;;;;;-144.47;100.00;61586.06;5012640;28;20112;-79
2022/08/19 02:20:42;;;;;;;1.55;0.50;;;;;;;-144.47;100.00;61586.06;5012752;28;20030;-78
2022/08/19 02:23:08;;;;;;;1.48;0.73;;;;;;;-144.47;100.00;61586.06;5012346;28;20037;-79
2022/08/19 02:25:34;;;;;;;0.77;0.60;;;;;;;-144.47;100.00;61586.06;5012918;28;20038;-80
2022/08/19 02:27:59;;;;;;;1.33;0.63;;;;;;;-144.47;100.00;61586.06;5012215;28;20041;-79
2022/08/19 02:30:25;;;;;;;1.70;0.60;;;;;;;-144.47;100.00;61586.06;5012723;28;20034;-79
2022/08/19 02:32:51;;;;;;;1.15;0.60;;;;;;;-144.47;100.00;61586.06;5012107;28;20489;-79
2022/08/19 02:35:17;;;;;;;2.33;1.58;;;;;;;-144.47;100.00;61586.06;5012098;28;20034;-77
2022/08/19 02:40:29;;;;;;;0.80;0.60;;;;;;;-144.47;100.00;61586.06;5011135;28;20100;-77
2022/08/19 02:42:55;;;;;;;2.15;0.80;;;;;;;-144.47;100.00;61586.06;5012359;28;20037;-79
2022/08/19 02:45:21;;;;;;;1.38;0.82;;;;;;;-144.47;100.00;61586.06;5012423;28;20037;-78
2022/08/19 02:47:47;;;;;;;1.05;0.80;;;;;;;-144.47;100.00;61586.06;5012312;28;20038;-78
2022/08/19 02:50:13;;;;;;;1.35;0.70;;;;;;;-144.47;100.00;61586.06;5011388;28;20033;-75
2022/08/19 02:52:38;;;;;;;1.92;0.70;;;;;;;-144.47;100.00;61586.06;5012315;28;20033;-79
2022/08/19 02:55:05;;;;;;;2.97;0.73;;;;;;;-144.47;100.00;61586.06;5011265;28;20026;-75
2022/08/19 02:57:31;;;;;;;0.70;0.52;;;;;;;-144.47;100.00;61586.06;5011965;28;20167;-76
2022/08/19 02:59:58;;;;;;;1.25;0.70;;;;;;;-144.47;100.00;61586.06;5011859;28;20041;-76
2022/08/19 03:02:24;;;;;;;0.80;0.80;;;;;;;-144.47;100.00;61586.06;5011708;28;20034;-78
2022/08/19 03:04:50;;;;;;;0.77;0.70;;;;;;;-144.47;100.00;61586.06;5012412;28;20034;-78
2022/08/19 03:07:18;;;;;;;1.42;0.90;;;;;;;-144.47;100.00;61586.06;5011630;28;20037;-76
2022/08/19 03:09:43;;;;;;;2.42;0.70;;;;;;;-144.47;100.00;61586.06;5011933;28;20033;-77
2022/08/19 03:12:10;;;;;;;2.33;0.40;;;;;;;-144.47;100.00;61586.06;5011290;28;20057;-77
2022/08/19 03:14:36;;;;;;;0.75;0.70;;;;;;;-144.47;100.00;61586.06;5011860;28;20034;-75
2022/08/19 03:17:04;;;;;;;0.80;0.60;;;;;;;-144.47;100.00;61586.06;5011526;28;20045;-78
2022/08/19 03:19:31;;;;;;;0.70;0.55;;;;;;;-144.47;100.00;61586.06;5010912;28;20038;-76
2022/08/19 03:21:58;;;;;;;1.15;0.82;;;;;;;-144.47;100.00;61586.06;5011582;28;20025;-77
2022/08/19 03:24:24;;;;;;;1.33;0.70;;;;;;;-144.47;100.00;61586.06;5009978;28;20037;-77
2022/08/19 03:26:52;;;;;;;1.70;0.80;;;;;;;-144.47;100.00;61586.06;5009432;28;20049;-77
2022/08/19 03:29:19;;;;;;;2.08;0.80;;;;;;;-144.47;100.00;61586.06;5008976;28;20034;-77
2022/08/19 03:31:45;;;;;;;0.93;0.50;;;;;;;-144.47;100.00;61586.06;5011833;28;20084;-77
2022/08/19 03:34:17;;;;;;;0.93;0.82;;;;;;;-144.47;100.00;61586.06;5010610;28;20057;-76
2022/08/19 03:36:42;;;;;;;0.57;0.52;;;;;;;-144.47;100.00;61586.06;5010511;28;20053;-77
2022/08/19 03:39:10;;;;;;;2.08;0.80;;;;;;;-144.47;100.00;61586.06;5007722;28;20026;-76
2022/08/19 03:41:41;;;;;;;1.27;0.70;;;;;;;-144.47;100.00;61586.06;5011395;28;20029;-77
2022/08/19 03:44:08;;;;;;;3.90;0.63;;;;;;;-144.47;100.00;61586.06;5011075;28;20026;-77
2022/08/19 03:46:35;;;;;;;1.40;0.80;;;;;;;-144.47;100.00;61586.06;5011584;28;20030;-77
2022/08/19 03:49:06;;;;;;;0.60;0.60;;;;;;;-144.47;100.00;61586.06;5010705;28;20116;-76
2022/08/19 03:51:36;;;;;;;2.03;0.68;;;;;;;-144.47;100.00;61586.06;5010822;28;20042;-76
2022/08/19 03:54:04;;;;;;;3.03;0.80;;;;;;;-144.47;100.00;61586.06;5010864;28;20029;-77
2022/08/19 03:56:30;;;;;;;1.27;0.68;;;;;;;-144.47;100.00;61586.06;5011371;28;20042;-77
2022/08/19 03:58:57;;;;;;;0.95;0.93;;;;;;;-144.47;100.00;61586.06;5011302;28;20037;-77
2022/08/19 04:01:28;;;;;;;0.70;0.70;;;;;;;-144.47;100.00;61586.06;5011430;28;20252;-77
2022/08/19 04:03:55;;;;;;;3.15;1.17;;;;;;;-144.47;100.00;61586.06;5009241;28;20038;-77
2022/08/19 04:06:24;;;;;;;1.15;0.80;;;;;;;-144.47;100.00;61586.06;5011786;28;20041;-77
2022/08/19 04:08:53;;;;;;;6.18;0.82;;;;;;;-144.47;100.00;61586.06;5015292;28;20578;-77
2022/08/19 04:11:22;;;;;;;0.88;0.88;;;;;;;-144.47;100.00;61586.06;5012676;28;20055;-77
2022/08/19 04:13:50;;;;;;;1.60;0.90;;;;;;;-144.47;100.00;61586.06;5015418;28;20033;-77
2022/08/19 04:16:17;;;;;;;1.05;0.80;;;;;;;-144.47;100.00;61586.06;5015099;28;20030;-77
2022/08/19 04:18:43;;;;;;;1.15;1.05;;;;;;;-144.47;100.00;61586.06;5015082;28;20036;-76
2022/08/19 04:21:20;;;;;;;1.70;1.25;;;;;;;-144.47;100.00;61586.06;5014178;28;20116;-76
2022/08/19 04:23:46;;;;;;;1.45;1.35;;;;;;;-144.47;100.00;61586.06;5014120;28;20034;-77
2022/08/19 04:26:18;;;;;;;2.53;1.30;;;;;;;-144.47;100.00;61586.06;5014712;28;20049;-77
2022/08/19 04:28:44;;;;;;;1.98;1.70;;;;;;;-144.47;100.00;61586.06;5015053;28;20492;-77
2022/08/19 04:31:19;;;;;;;2.10;1.77;;;;;;;-144.47;100.00;61586.06;5014626;28;20049;-77
2022/08/19 04:33:45;;;;;;;1.98;1.75;;;;;;;-144.47;100.00;61586.06;5012314;28;20419;-78
2022/08/19 04:36:22;;;;;;;2.83;1.58;;;;;;;-144.47;100.00;61586.06;5013856;28;20140;-77
2022/08/19 04:38:48;;;;;;;2.35;2.15;;;;;;;-144.47;100.00;61586.06;5013204;28;20042;-77
2022/08/19 04:43:59;;;;;;;3.58;2.58;;;;;;;-144.47;100.00;61586.06;5013372;28;20463;-77
2022/08/19 04:46:25;;;;;;;4.75;2.65;;;;;;;-144.47;100.00;61586.06;5015568;28;20552;-77
2022/08/19 04:48:51;;;;;;;3.28;2.60;;;;;;;-144.47;100.00;61586.06;5014499;28;20504;-77
2022/08/19 04:51:16;;;;;;;3.30;2.63;;;;;;;-144.47;100.00;61586.06;5013965;28;20025;-77
2022/08/19 04:53:42;;;;;;;3.45;3.13;;;;;;;-144.47;100.00;61586.06;5014106;28;20104;-75
2022/08/19 04:56:14;;;;;;;5.82;3.28;;;;;;;-144.47;100.00;61586.06;5012594;28;20034;-76
2022/08/19 04:58:42;;;;;;;3.42;2.95;;;;;;;-144.47;100.00;61586.06;5014438;28;20121;-76
2022/08/19 05:01:10;;;;;;;4.47;3.72;;;;;;;-144.47;100.00;61586.06;5014120;28;20034;-77
2022/08/19 05:03:36;;;;;;;3.42;3.13;;;;;;;-144.47;100.00;61586.06;5014157;28;20026;-77
2022/08/19 05:06:10;;;;;;;4.65;3.58;;;;;;;-144.47;100.00;61586.06;5013697;28;20113;-78
2022/08/19 05:08:41;;;;;;;6.47;3.65;;;;;;;-144.47;100.00;61586.06;5012719;28;20029;-77
2022/08/19 05:11:15;;;;;;;3.65;3.42;;;;;;;-144.47;100.00;61586.06;5012203;28;20030;-77
2022/08/19 05:13:43;;;;;;;4.50;3.72;;;;;;;-144.47;100.00;61586.06;5014249;28;20470;-77
2022/08/19 05:16:10;;;;;;;3.83;3.53;;;;;;;-144.47;100.00;61586.06;5011672;28;20117;-77
2022/08/19 05:24:08;;;;;;;3.00;2.80;;;;;;;-144.47;100.00;61586.06;5013269;28;20033;-77
2022/08/19 05:26:39;;;;;;;3.88;3.20;;;;;;;-144.47;100.00;61586.06;5013265;28;20034;-77
2022/08/19 05:29:04;;;;;;;;;;;;;;;-144.47;100.00;61586.06;5013730;28;20034;-77
2022/08/19 05:31:31;;;;;;;3.10;2.90;;;;;;;-144.47;100.00;61586.06;5013861;28;19968;-77
2022/08/19 05:34:00;;;;;;;5.40;2.80;;;;;;;-144.47;100.00;61586.06;5012064;28;20572;-77
2022/08/19 05:36:27;;;;;;;2.92;2.38;;;;;;;-144.47;100.00;61586.06;5011634;28;20520;-77
2022/08/19 05:38:53;;;;;;;2.22;2.08;;;;;;;-144.47;100.00;61586.06;5011402;28;20458;-77
2022/08/19 05:41:20;;;;;;;3.83;1.95;;;;;;;-144.47;100.00;61586.06;5010591;28;20105;-77
2022/08/19 05:43:46;;;;;;;5.75;2.00;;;;;;;-144.47;100.00;61586.06;5010842;28;20034;-77
2022/08/19 05:46:19;;;;;;;3.42;2.75;;;;;;;-144.47;100.00;61586.06;5013256;28;20045;-76
2022/08/19 05:48:46;;;;;;;2.25;1.77;;;;;;;-144.47;100.00;61586.06;5010385;28;20485;-76
2022/08/19 05:51:12;;;;;;;1.80;1.70;;;;;;;-144.47;100.00;61586.06;5013250;28;20049;-76
2022/08/19 05:53:38;;;;;;;6.03;1.98;;;;;;;-144.47;100.00;61586.06;5010042;28;20478;-77
2022/08/19 05:56:15;;;;;;;3.38;1.85;;;;;;;-144.47;100.00;61586.06;5012410;28;20040;-77
2022/08/19 05:58:42;;;;;;;3.50;2.25;;;;;;;-144.47;100.00;61586.06;5011060;28;20041;-77
2022/08/19 06:01:15;;;;;;;3.35;2.10;;;;;;;-144.47;100.00;61586.06;5012722;28;20037;-77
2022/08/19 06:03:41;;;;;;;2.10;1.73;;;;;;;-144.47;100.00;61586.06;5013135;28;20541;-75
2022/08/19 06:06:09;;;;;;;3.25;1.77;;;;;;;-144.47;100.00;61586.06;5012295;28;20503;-77
2022/08/19 06:08:37;;;;;;;3.55;1.77;;;;;;;-144.47;100.00;61586.06;5013156;28;20563;-77
2022/08/19 06:11:35;;;;;;;3.35;1.73;;;;;;;-144.47;100.00;61586.06;5011903;28;20041;-77
2022/08/19 06:14:04;;;;;;;3.58;1.80;;;;;;;-144.47;100.00;61586.06;4995965;28;20133;-74
2022/08/19 06:16:31;;;;;;;1.67;1.57;;;;;;;-144.47;100.00;61586.06;5012861;28;20482;-76
2022/08/19 06:19:00;;;;;;;2.13;1.83;;;;;;;-144.47;100.00;61586.06;5012352;28;20041;-77
2022/08/19 06:21:27;;;;;;;2.95;1.80;;;;;;;-144.47;100.00;61586.06;5012325;28;20474;-77
2022/08/19 06:23:54;;;;;;;2.65;1.70;;;;;;;-144.47;100.00;61586.06;5012694;28;20658;-78
2022/08/19 06:26:20;;;;;;;2.97;1.80;;;;;;;-144.47;100.00;61586.06;5011962;28;20449;-77
2022/08/19 06:28:48;;;;;;;9.82;1.92;;;;;;;-144.47;100.00;61586.06;5010246;28;20034;-77
2022/08/19 06:31:16;;;;;;;4.95;2.05;;;;;;;-144.47;100.00;61586.06;5011969;28;20809;-77
2022/08/19 06:33:44;;;;;;;11.65;3.13;;;;;;;-144.47;100.00;61586.06;5012455;28;20065;-76
2022/08/19 06:36:50;;;;;;;3.45;2.30;;;;;;;-144.47;100.00;61586.06;5010916;28;20656;-76
2022/08/19 06:39:27;;;;;;;3.17;2.42;;;;;;;-144.47;100.00;61586.06;5012192;28;20390;-76
2022/08/19 06:41:59;;;;;;;3.20;2.63;;;;;;;-144.47;100.00;61586.06;5011609;28;20747;-77
2022/08/19 06:44:34;;;;;;;4.60;2.67;;;;;;;-144.47;100.00;61586.06;5012245;28;20559;-77
2022/08/19 06:47:04;;;;;;;3.92;3.13;;;;;;;-144.47;100.00;61586.06;5011482;28;20025;-78
2022/08/19 06:49:33;;;;;;;;;;;;;;;-144.47;100.00;61586.06;5012598;28;20224;-77
2022/08/19 06:51:59;;;;;;;3.83;2.78;;;;;;;-144.47;100.00;61586.06;5011547;28;20012;-77
2022/08/19 06:54:28;;;;;;;3.53;2.22;;;;;;;-144.47;100.00;61586.06;5012285;28;20037;-79
2022/08/19 06:56:53;;;;;;;2.35;2.13;;;;;;;-144.47;100.00;61586.06;5011777;28;20386;-77
2022/08/19 06:59:27;;;;;;;2.97;2.67;;;;;;;-144.47;100.00;61586.06;5010264;28;20030;-76
2022/08/19 07:01:55;;;;;;;2.35;2.13;;;;;;;-144.47;100.00;61586.06;5026886;28;20053;-77
2022/08/19 07:04:33;;;;;;;3.10;2.40;;;;;;;-144.47;100.00;61586.06;5011689;28;20119;-79
2022/08/19 07:07:07;;;;;;;8.15;2.70;;;;;;;-144.47;100.00;61586.06;5011483;28;20030;-80
2022/08/19 07:09:36;;;;;;;2.50;2.30;;;;;;;-144.47;100.00;61586.06;5012194;28;20053;-77
2022/08/19 07:12:04;;;;;;;3.35;2.40;;;;;;;-144.47;100.00;61586.06;5011545;28;20038;-79
2022/08/19 07:14:30;;;;;;;2.70;2.50;;;;;;;-144.47;100.00;61586.06;5013009;28;20356;-79
2022/08/19 07:16:57;;;;;;;2.72;2.00;;;;;;;-144.47;100.00;61586.06;5011549;28;20109;-79
2022/08/19 07:19:25;;;;;;;2.45;2.25;;;;;;;-144.47;100.00;61586.06;5011430;28;20466;-79
2022/08/19 07:21:52;;;;;;;2.30;2.10;;;;;;;-144.47;100.00;61586.06;5011475;28;20390;-79
2022/08/19 07:24:25;;;;;;;3.90;2.25;;;;;;;-144.47;100.00;61586.06;5011819;28;20406;-79
2022/08/19 07:26:54;;;;;;;2.42;2.22;;;;;;;-144.47;100.00;61586.06;5011731;28;20030;-80
2022/08/19 07:29:22;;;;;;;4.95;1.95;;;;;;;-144.47;100.00;61586.06;5011469;28;20021;-77
2022/08/19 07:31:50;;;;;;;2.85;1.92;;;;;;;-144.47;100.00;61586.06;5011647;28;20435;-80
2022/08/19 07:34:16;;;;;;;3.13;2.03;;;;;;;-144.47;100.00;61586.06;5008230;28;20600;-79
2022/08/19 07:36:43;;;;;;;2.88;1.90;;;;;;;-144.47;100.00;61586.06;5011219;28;20088;-79
2022/08/19 07:39:18;;;;;;;5.28;1.70;;;;;;;-144.47;100.00;61586.06;5009084;28;20041;-78
2022/08/19 07:41:44;;;;;;;2.53;1.50;;;;;;;-144.47;100.00;61586.06;5010105;28;20394;-78
2022/08/19 07:44:12;;;;;;;2.92;1.98;;;;;;;-144.47;100.00;61586.06;5011234;28;20096;-79
2022/08/19 07:46:41;;;;;;;3.22;1.80;;;;;;;-144.47;100.00;61586.06;5009851;28;20466;-80
2022/08/19 07:49:08;;;;;;;2.30;1.75;;;;;;;-144.47;100.00;61586.06;5010812;28;20102;-79
2022/08/19 07:51:34;;;;;;;2.30;1.58;;;;;;;-144.47;100.00;61586.06;5009281;28;20034;-79
2022/08/19 07:53:59;;;;;;;2.08;1.88;;;;;;;-144.47;100.00;61586.06;5011307;28;20034;-79
2022/08/19 07:56:26;;;;;;;3.17;1.80;;;;;;;-144.47;100.00;61586.06;5011273;28;20058;-79
2022/08/19 07:58:52;;;;;;;2.83;1.52;;;;;;;-144.47;100.00;61586.06;5011139;28;20401;-79
2022/08/19 08:01:24;;;;;;;1.50;1.40;;;;;;;-144.47;100.00;61586.06;5010956;28;20030;-79
2022/08/19 08:09:38;;;;;;;3.95;1.20;;;;;;;-144.47;100.00;61586.06;5009808;28;20041;-80
2022/08/19 08:12:14;;;;;;;3.28;1.00;;;;;;;-144.47;100.00;61586.06;5010088;28;20037;-79
2022/08/19 08:14:52;;;;;;;2.88;1.60;;;;;;;-144.47;100.00;61586.06;5011260;28;20382;-79
2022/08/19 08:17:20;;;;;;;3.08;1.10;;;;;;;-144.47;100.00;61586.06;5008010;28;20033;-79
2022/08/19 08:19:47;;;;;;;3.47;1.10;;;;;;;-144.47;100.00;61586.06;5010837;28;20054;-80
2022/08/19 08:25:07;;;;;;;1.92;1.30;;;;;;;-144.47;100.00;61586.06;5009873;28;20030;-77
2022/08/19 08:27:40;;;;;;;1.95;0.90;;;;;;;-144.47;100.00;61586.06;5011405;28;20444;-79
2022/08/19 08:30:14;;;;;;;1.27;0.80;;;;;;;-144.47;100.00;61586.06;5010966;28;20385;-79
2022/08/19 08:32:41;;;;;;;0.90;0.80;;;;;;;-144.47;100.00;61586.06;5010277;28;20053;-79
2022/08/19 08:35:12;;;;;;;1.58;0.90;;;;;;;-144.47;100.00;61586.06;5010171;28;20491;-79
2022/08/19 08:37:38;;;;;;;1.52;1.00;;;;;;;-144.47;100.00;61586.06;5010861;28;20124;-79
2022/08/19 08:40:11;;;;;;;0.63;0.63;;;;;;;-144.47;100.00;61586.06;5010802;28;20671;-79
2022/08/19 08:42:43;;;;;;;1.20;0.93;;;;;;;-144.47;100.00;61586.06;5010734;28;20410;-79
2022/08/19 08:45:16;;;;;;;2.22;0.90;;;;;;;-144.47;100.00;61586.06;5009843;28;20367;-79
2022/08/19 08:47:47;;;;;;;1.23;0.98;;;;;;;-144.47;100.00;61586.06;5010604;28;20074;-79
2022/08/19 08:50:22;;;;;;;4.60;1.65;;;;;;;-144.47;100.00;61586.06;5009924;28;20173;-78
2022/08/19 08:52:55;;;;;;;2.35;1.10;;;;;;;-144.47;100.00;61586.06;5010122;28;20041;-77
2022/08/19 08:55:24;;;;;;;1.23;0.80;;;;;;;-144.47;100.00;61586.06;5014381;28;20425;-79
2022/08/19 08:58:03;;;;;;;3.25;1.25;;;;;;;-144.47;100.00;61586.06;5014386;28;20030;-79
2022/08/19 09:00:35;;;;;;;1.90;1.00;;;;;;;-144.47;100.00;61586.06;5014645;28;20433;-80
2022/08/19 09:03:08;;;;;;;1.52;1.10;;;;;;;-144.47;100.00;61586.06;5013827;28;20040;-78
2022/08/19 09:05:49;;;;;;;1.17;0.80;;;;;;;-144.47;100.00;61586.06;5012438;28;20374;-78
2022/08/19 09:08:44;;;;;;;0.93;0.93;;;;;;;-144.47;100.00;61586.06;5012902;28;20510;-78
2022/08/19 09:11:18;;;;;;;2.67;1.20;;;;;;;-144.47;100.00;61586.06;5013341;28;20116;-77
2022/08/19 09:14:06;;;;;;;1.33;1.10;;;;;;;-144.47;100.00;61586.06;5011544;28;20390;-79
2022/08/19 09:16:32;;;;;;;2.90;1.15;;;;;;;-144.47;100.00;61586.06;5013543;28;20065;-79
2022/08/19 09:19:03;;;;;;;3.15;1.40;;;;;;;-144.47;100.00;61586.06;5013470;28;20088;-79
2022/08/19 09:21:28;;;;;;;2.72;1.00;;;;;;;-144.47;100.00;61586.06;5013880;28;20422;-79
2022/08/19 09:23:54;;;;;;;1.13;1.02;;;;;;;-144.47;100.00;61586.06;5013912;28;20030;-79
2022/08/19 09:26:22;;;;;;;1.40;0.80;;;;;;;-144.47;100.00;61586.06;5013836;28;20099;-79
2022/08/19 09:28:49;;;;;;;2.72;0.90;;;;;;;-144.47;100.00;61586.06;5014225;28;20026;-79
2022/08/19 09:31:18;;;;;;;2.20;1.02;;;;;;;-144.47;100.00;61586.06;5012801;28;20466;-78
2022/08/19 09:33:44;;;;;;;2.97;1.00;;;;;;;-144.47;100.00;61586.06;5013855;28;20029;-78
2022/08/19 09:36:13;;;;;;;1.67;0.73;;;;;;;-144.47;100.00;61586.06;5013035;28;20022;-79
2022/08/19 09:38:42;;;;;;;1.30;0.60;;;;;;;-144.47;100.00;61586.06;5013736;28;20041;-79
2022/08/19 09:41:14;;;;;;;1.15;0.73;;;;;;;-144.47;100.00;61586.06;5015425;28;20451;-79
2022/08/19 09:43:42;;;;;;;0.82;0.82;;;;;;;-144.47;100.00;61586.06;5013869;28;20112;-79
2022/08/19 09:46:11;;;;;;;1.67;0.82;;;;;;;-144.47;100.00;61586.06;5013897;28;20386;-79
2022/08/19 09:48:39;;;;;;;1.38;0.73;;;;;;;-144.47;100.00;61586.06;5013479;28;20037;-79
2022/08/19 09:51:07;;;;;;;2.28;0.90;;;;;;;-144.47;100.00;61586.06;5012761;28;20382;-77
2022/08/19 09:53:35;;;;;;;2.15;0.80;;;;;;;-144.47;100.00;61586.06;5013588;28;20045;-79
2022/08/19 09:56:02;;;;;;;1.10;0.95;;;;;;;-144.47;100.00;61586.06;5012093;28;20121;-79
2022/08/19 09:58:29;;;;;;;1.27;0.70;;;;;;;-144.47;100.00;61586.06;5013227;28;20033;-79
2022/08/19 10:00:57;;;;;;;1.02;0.57;;;;;;;-144.47;100.00;61586.06;5013188;28;20113;-78
2022/08/19 10:03:22;;;;;;;0.98;0.90;;;;;;;-144.47;100.00;61586.06;5013360;28;20026;-79
2022/08/19 10:05:48;;;;;;;0.90;0.85;;;;;;;-144.47;100.00;61586.06;5012421;28;20041;-79
2022/08/19 10:08:21;;;;;;;1.50;0.80;;;;;;;-144.47;100.00;61586.06;5012870;28;20038;-79
2022/08/19 10:10:48;;;;;;;1.88;0.80;;;;;;;-144.47;100.00;61586.06;5012890;28;20113;-77
2022/08/19 10:13:16;;;;;;;1.05;0.77;;;;;;;-144.47;100.00;61586.06;5013000;28;20597;-79
2022/08/19 10:15:42;;;;;;;1.98;0.88;;;;;;;-144.47;100.00;61586.06;5013987;28;20112;-78
2022/08/19 10:18:08;;;;;;;0.82;0.73;;;;;;;-144.47;100.00;61586.06;5012681;28;20034;-79
2022/08/19 10:20:35;;;;;;;1.30;0.90;;;;;;;-144.47;100.00;61586.06;5012627;28;20061;-79
2022/08/19 10:23:02;;;;;;;0.75;0.68;;;;;;;-144.47;100.00;61586.06;5012272;28;20114;-79
2022/08/19 10:25:28;;;;;;;1.45;0.88;;;;;;;-144.47;100.00;61586.06;5012954;28;20440;-79
2022/08/19 10:27:53;;;;;;;2.28;0.77;;;;;;;-144.47;100.00;61586.06;5012621;28;20118;-79
2022/08/19 10:30:19;;;;;;;1.48;0.70;;;;;;;-144.47;100.00;61586.06;5012808;28;20030;-78
2022/08/19 10:32:46;;;;;;;0.82;0.80;;;;;;;-144.47;100.00;61586.06;5012807;28;20421;-78
2022/08/19 10:35:13;;;;;;;1.13;0.63;;;;;;;-144.47;100.00;61586.06;5012216;28;20034;-78
2022/08/19 10:37:39;;;;;;;1.48;0.73;;;;;;;-144.47;100.00;61586.06;5012121;28;20398;-79
2022/08/19 10:40:07;;;;;;;1.58;1.00;;;;;;;-144.47;100.00;61586.06;5012025;28;20041;-78
2022/08/19 10:42:34;;;;;;;1.88;0.80;;;;;;;-144.47;100.00;61586.06;5011489;28;20421;-78
2022/08/19 10:45:00;;;;;;;1.50;0.90;;;;;;;-144.47;100.00;61586.06;5012548;28;20451;-78
2022/08/19 10:47:25;;;;;;;1.05;0.80;;;;;;;-144.47;100.00;61586.06;5012681;28;20109;-79
2022/08/19 10:52:36;;;;;;;0.63;0.63;;;;;;;-144.47;100.00;61586.06;5011908;28;20029;-79
2022/08/19 10:57:48;;;;;;;1.33;1.15;;;;;;;-144.47;100.00;61586.06;5011940;28;20034;-78
2022/08/19 11:00:14;;;;;;;1.80;0.82;;;;;;;-144.47;100.00;61586.06;5011851;28;20501;-79
2022/08/19 11:02:41;;;;;;;1.10;0.80;;;;;;;-144.47;100.00;61586.06;5012195;28;20086;-79
2022/08/19 11:05:10;;;;;;;0.85;0.70;;;;;;;-144.47;100.00;61586.06;5012062;28;20053;-79
2022/08/19 11:07:38;;;;;;;1.27;0.95;;;;;;;-144.47;100.00;61586.06;5012029;28;20022;-79
2022/08/19 11:10:04;;;;;;;0.70;0.70;;;;;;;-144.47;100.00;61586.06;5011980;28;20471;-76
2022/08/19 11:12:30;;;;;;;2.55;0.70;;;;;;;-144.47;100.00;61586.06;5011903;28;20042;-79
2022/08/19 11:14:55;;;;;;;2.60;0.88;;;;;;;-144.47;100.00;61586.06;5011452;28;20126;-79
2022/08/19 11:17:23;;;;;;;1.05;0.70;;;;;;;-144.47;100.00;61586.06;5012519;28;20058;-80
2022/08/19 11:19:49;;;;;;;1.30;0.70;;;;;;;-144.47;100.00;61586.06;5010629;28;20037;-80
2022/08/19 11:22:15;;;;;;;0.80;0.80;;;;;;;-144.47;100.00;61586.06;5011727;28;20033;-79
2022/08/19 11:24:40;;;;;;;1.73;0.88;;;;;;;-144.47;100.00;61586.06;5011762;28;20026;-80
2022/08/19 11:27:09;;;;;;;1.55;0.70;;;;;;;-144.47;100.00;61586.06;5011500;28;20117;-79
2022/08/19 11:29:38;;;;;;;1.25;0.60;;;;;;;-144.47;100.00;61586.06;5011996;28;20054;-79
2022/08/19 11:32:09;;;;;;;3.03;0.70;;;;;;;-144.47;100.00;61586.06;5011683;28;20053;-79
2022/08/19 11:34:36;;;;;;;1.75;0.73;;;;;;;-144.47;100.00;61586.06;5011859;28;20562;-78
2022/08/19 11:37:03;;;;;;;0.98;0.80;;;;;;;-144.47;100.00;61586.06;5011308;28;20393;-79
2022/08/19 11:39:31;;;;;;;1.08;0.73;;;;;;;-144.47;100.00;61586.06;5010172;28;20037;-77
2022/08/19 11:42:54;;;;;;;0.65;0.63;;;;;;;-144.47;100.00;61586.06;5008064;28;20033;-80